sensor_id;sensor_type;location;lat;lon;timestamp;P1;durP1;ratioP1;P2;durP2;ratioP2
50779;SDS011;36748;37.428;-121.972;2022-09-27T00:01:12;9.52;;;3.78;;
50779;SDS011;36748;37.428;-121.972;2022-09-27T00:03:40;10.88;;;3.85;;
50779;SDS011;36748;37.428;-121.972;2022-09-27T00:06:07;8.57;;;3.70;;
50779;SDS011;36748;37.428;-121.972;2022-09-27T00:08:34;8.25;;;3.40;;
50779;SDS011;36748;37.428;-121.972;2022-09-27T00:11:02;9.55;;;4.10;;
50779;SDS011;36748;37.428;-121.972;2022-09-27T00:13:29;16.77;;;4.35;;
50779;SDS011;36748;37.428;-121.972;2022-09-27T00:15:56;9.95;;;3.72;;
50779;SDS011;36748;37.428;-121.972;2022-09-27T00:18:27;8.60;;;4.07;;
50779;SDS011;36748;37.428;-121.972;2022-09-27T00:20:53;8.10;;;3.90;;
50779;SDS011;36748;37.428;-121.972;2022-09-27T00:23:19;8.18;;;3.78;;
50779;SDS011;36748;37.428;-121.972;2022-09-27T00:25:58;12.38;;;3.83;;
50779;SDS011;36748;37.428;-121.972;2022-09-27T00:28:24;8.98;;;3.58;;
50779;SDS011;36748;37.428;-121.972;2022-09-27T00:30:51;8.02;;;3.75;;
50779;SDS011;36748;37.428;-121.972;2022-09-27T00:33:18;8.27;;;4.07;;
50779;SDS011;36748;37.428;-121.972;2022-09-27T00:35:44;10.65;;;4.30;;
50779;SDS011;36748;37.428;-121.972;2022-09-27T00:38:11;6.60;;;3.40;;
50779;SDS011;36748;37.428;-121.972;2022-09-27T00:40:38;7.88;;;3.78;;
50779;SDS011;36748;37.428;-121.972;2022-09-27T00:43:41;11.77;;;4.15;;
50779;SDS011;36748;37.428;-121.972;2022-09-27T00:46:59;6.65;;;3.65;;
50779;SDS011;36748;37.428;-121.972;2022-09-27T00:52:23;7.82;;;3.55;;
50779;SDS011;36748;37.428;-121.972;2022-09-27T00:54:55;7.67;;;3.90;;
50779;SDS011;36748;37.428;-121.972;2022-09-27T00:57:24;6.20;;;3.30;;
50779;SDS011;36748;37.428;-121.972;2022-09-27T00:59:51;6.93;;;3.60;;
50779;SDS011;36748;37.428;-121.972;2022-09-27T01:02:39;8.80;;;3.83;;
50779;SDS011;36748;37.428;-121.972;2022-09-27T01:05:07;8.30;;;3.90;;
50779;SDS011;36748;37.428;-121.972;2022-09-27T01:07:35;10.60;;;3.95;;
50779;SDS011;36748;37.428;-121.972;2022-09-27T01:10:01;6.65;;;4.05;;
50779;SDS011;36748;37.428;-121.972;2022-09-27T01:15:25;8.80;;;3.85;;
50779;SDS011;36748;37.428;-121.972;2022-09-27T01:26:22;5.68;;;3.50;;
50779;SDS011;36748;37.428;-121.972;2022-09-27T01:39:56;6.57;;;3.90;;
50779;SDS011;36748;37.428;-121.972;2022-09-27T01:47:44;9.80;;;3.47;;
50779;SDS011;36748;37.428;-121.972;2022-09-27T01:50:34;8.00;;;4.07;;
50779;SDS011;36748;37.428;-121.972;2022-09-27T01:56:00;11.40;;;3.90;;
50779;SDS011;36748;37.428;-121.972;2022-09-27T01:58:39;17.42;;;3.88;;
50779;SDS011;36748;37.428;-121.972;2022-09-27T02:01:08;9.52;;;3.72;;
50779;SDS011;36748;37.428;-121.972;2022-09-27T02:03:36;6.00;;;3.70;;
50779;SDS011;36748;37.428;-121.972;2022-09-27T02:06:16;8.55;;;3.70;;
50779;SDS011;36748;37.428;-121.972;2022-09-27T02:08:57;10.88;;;4.32;;
50779;SDS011;36748;37.428;-121.972;2022-09-27T02:11:24;10.05;;;4.10;;
50779;SDS011;36748;37.428;-121.972;2022-09-27T02:14:11;6.53;;;3.80;;
50779;SDS011;36748;37.428;-121.972;2022-09-27T02:21:52;7.18;;;4.05;;
50779;SDS011;36748;37.428;-121.972;2022-09-27T02:24:23;8.27;;;4.07;;
50779;SDS011;36748;37.428;-121.972;2022-09-27T02:27:05;10.52;;;4.28;;
50779;SDS011;36748;37.428;-121.972;2022-09-27T02:29:47;15.07;;;4.35;;
50779;SDS011;36748;37.428;-121.972;2022-09-27T02:32:38;13.60;;;4.32;;
50779;SDS011;36748;37.428;-121.972;2022-09-27T02:35:06;10.15;;;3.90;;
50779;SDS011;36748;37.428;-121.972;2022-09-27T02:37:44;8.80;;;3.83;;
50779;SDS011;36748;37.428;-121.972;2022-09-27T02:40:19;8.18;;;4.00;;
50779;SDS011;36748;37.428;-121.972;2022-09-27T02:42:52;6.40;;;4.32;;
50779;SDS011;36748;37.428;-121.972;2022-09-27T02:45:21;6.72;;;4.18;;
50779;SDS011;36748;37.428;-121.972;2022-09-27T02:48:12;5.78;;;4.05;;
50779;SDS011;36748;37.428;-121.972;2022-09-27T02:53:16;11.43;;;4.53;;
50779;SDS011;36748;37.428;-121.972;2022-09-27T02:56:00;9.20;;;4.57;;
50779;SDS011;36748;37.428;-121.972;2022-09-27T02:58:59;5.82;;;4.30;;
50779;SDS011;36748;37.428;-121.972;2022-09-27T03:04:39;11.82;;;5.00;;
50779;SDS011;36748;37.428;-121.972;2022-09-27T03:07:18;12.02;;;4.50;;
50779;SDS011;36748;37.428;-121.972;2022-09-27T03:09:46;12.57;;;5.32;;
50779;SDS011;36748;37.428;-121.972;2022-09-27T03:12:17;16.23;;;5.13;;
50779;SDS011;36748;37.428;-121.972;2022-09-27T03:14:56;12.15;;;4.70;;
50779;SDS011;36748;37.428;-121.972;2022-09-27T03:17:24;10.80;;;5.18;;
50779;SDS011;36748;37.428;-121.972;2022-09-27T03:19:50;9.18;;;4.60;;
50779;SDS011;36748;37.428;-121.972;2022-09-27T03:22:17;7.75;;;4.95;;
50779;SDS011;36748;37.428;-121.972;2022-09-27T03:24:43;7.82;;;4.72;;
50779;SDS011;36748;37.428;-121.972;2022-09-27T03:27:10;8.93;;;4.75;;
50779;SDS011;36748;37.428;-121.972;2022-09-27T03:29:36;12.30;;;4.97;;
50779;SDS011;36748;37.428;-121.972;2022-09-27T03:32:02;8.32;;;4.72;;
50779;SDS011;36748;37.428;-121.972;2022-09-27T03:34:29;9.07;;;4.55;;
50779;SDS011;36748;37.428;-121.972;2022-09-27T03:36:55;7.38;;;5.00;;
50779;SDS011;36748;37.428;-121.972;2022-09-27T03:39:21;7.95;;;5.10;;
50779;SDS011;36748;37.428;-121.972;2022-09-27T03:41:47;7.53;;;5.25;;
50779;SDS011;36748;37.428;-121.972;2022-09-27T03:44:13;8.70;;;5.20;;
50779;SDS011;36748;37.428;-121.972;2022-09-27T03:46:39;8.15;;;4.97;;
50779;SDS011;36748;37.428;-121.972;2022-09-27T03:49:05;8.35;;;5.28;;
50779;SDS011;36748;37.428;-121.972;2022-09-27T03:51:32;8.60;;;5.45;;
50779;SDS011;36748;37.428;-121.972;2022-09-27T03:53:58;9.50;;;4.75;;
50779;SDS011;36748;37.428;-121.972;2022-09-27T03:56:24;8.60;;;5.20;;
50779;SDS011;36748;37.428;-121.972;2022-09-27T03:58:50;9.13;;;4.85;;
50779;SDS011;36748;37.428;-121.972;2022-09-27T04:01:16;9.43;;;5.63;;
50779;SDS011;36748;37.428;-121.972;2022-09-27T04:03:42;9.27;;;4.97;;
50779;SDS011;36748;37.428;-121.972;2022-09-27T04:06:09;5.95;;;4.55;;
50779;SDS011;36748;37.428;-121.972;2022-09-27T04:08:36;8.43;;;5.55;;
50779;SDS011;36748;37.428;-121.972;2022-09-27T04:11:02;7.70;;;4.70;;
50779;SDS011;36748;37.428;-121.972;2022-09-27T04:13:30;7.50;;;4.65;;
50779;SDS011;36748;37.428;-121.972;2022-09-27T04:16:03;7.22;;;4.63;;
50779;SDS011;36748;37.428;-121.972;2022-09-27T04:18:33;7.07;;;4.80;;
50779;SDS011;36748;37.428;-121.972;2022-09-27T04:20:59;7.78;;;4.82;;
50779;SDS011;36748;37.428;-121.972;2022-09-27T04:23:26;7.40;;;4.93;;
50779;SDS011;36748;37.428;-121.972;2022-09-27T04:25:52;10.57;;;5.53;;
50779;SDS011;36748;37.428;-121.972;2022-09-27T04:28:18;9.52;;;4.85;;
50779;SDS011;36748;37.428;-121.972;2022-09-27T04:30:45;7.00;;;4.72;;
50779;SDS011;36748;37.428;-121.972;2022-09-27T04:33:12;7.88;;;4.45;;
50779;SDS011;36748;37.428;-121.972;2022-09-27T04:35:39;6.75;;;4.40;;
50779;SDS011;36748;37.428;-121.972;2022-09-27T04:38:23;10.27;;;4.70;;
50779;SDS011;36748;37.428;-121.972;2022-09-27T04:40:50;11.95;;;4.75;;
50779;SDS011;36748;37.428;-121.972;2022-09-27T04:43:16;10.15;;;4.55;;
50779;SDS011;36748;37.428;-121.972;2022-09-27T04:45:42;4.72;;;4.05;;
50779;SDS011;36748;37.428;-121.972;2022-09-27T04:48:09;5.88;;;3.92;;
50779;SDS011;36748;37.428;-121.972;2022-09-27T04:50:35;7.78;;;4.00;;
50779;SDS011;36748;37.428;-121.972;2022-09-27T04:53:02;5.95;;;3.65;;
50779;SDS011;36748;37.428;-121.972;2022-09-27T04:55:38;6.18;;;3.70;;
50779;SDS011;36748;37.428;-121.972;2022-09-27T04:58:04;5.55;;;4.07;;
50779;SDS011;36748;37.428;-121.972;2022-09-27T05:00:30;5.85;;;3.55;;
50779;SDS011;36748;37.428;-121.972;2022-09-27T05:02:56;5.07;;;3.80;;
50779;SDS011;36748;37.428;-121.972;2022-09-27T05:05:22;4.70;;;3.33;;
50779;SDS011;36748;37.428;-121.972;2022-09-27T05:07:49;4.55;;;3.30;;
50779;SDS011;36748;37.428;-121.972;2022-09-27T05:10:15;5.97;;;3.78;;
50779;SDS011;36748;37.428;-121.972;2022-09-27T05:12:41;4.57;;;3.67;;
50779;SDS011;36748;37.428;-121.972;2022-09-27T05:15:07;4.40;;;3.30;;
50779;SDS011;36748;37.428;-121.972;2022-09-27T05:17:34;6.90;;;3.38;;
50779;SDS011;36748;37.428;-121.972;2022-09-27T05:20:00;4.78;;;2.90;;
50779;SDS011;36748;37.428;-121.972;2022-09-27T05:22:28;3.97;;;3.10;;
50779;SDS011;36748;37.428;-121.972;2022-09-27T05:24:54;4.03;;;3.45;;
50779;SDS011;36748;37.428;-121.972;2022-09-27T05:27:20;4.55;;;3.17;;
50779;SDS011;36748;37.428;-121.972;2022-09-27T05:29:46;4.35;;;2.80;;
50779;SDS011;36748;37.428;-121.972;2022-09-27T05:32:13;3.75;;;3.28;;
50779;SDS011;36748;37.428;-121.972;2022-09-27T05:34:39;4.75;;;3.42;;
50779;SDS011;36748;37.428;-121.972;2022-09-27T05:37:05;3.10;;;2.80;;
50779;SDS011;36748;37.428;-121.972;2022-09-27T05:39:32;8.48;;;3.13;;
50779;SDS011;36748;37.428;-121.972;2022-09-27T05:41:58;5.25;;;2.90;;
50779;SDS011;36748;37.428;-121.972;2022-09-27T05:44:25;5.00;;;3.03;;
50779;SDS011;36748;37.428;-121.972;2022-09-27T05:46:51;3.83;;;3.17;;
50779;SDS011;36748;37.428;-121.972;2022-09-27T05:49:17;5.90;;;3.38;;
50779;SDS011;36748;37.428;-121.972;2022-09-27T05:51:45;3.28;;;2.97;;
50779;SDS011;36748;37.428;-121.972;2022-09-27T05:54:11;5.22;;;3.60;;
50779;SDS011;36748;37.428;-121.972;2022-09-27T05:56:37;4.20;;;3.00;;
50779;SDS011;36748;37.428;-121.972;2022-09-27T05:59:04;5.65;;;3.25;;
50779;SDS011;36748;37.428;-121.972;2022-09-27T06:01:30;4.32;;;3.30;;
50779;SDS011;36748;37.428;-121.972;2022-09-27T06:03:56;3.25;;;2.90;;
50779;SDS011;36748;37.428;-121.972;2022-09-27T06:06:22;3.58;;;2.83;;
50779;SDS011;36748;37.428;-121.972;2022-09-27T06:08:48;5.10;;;2.97;;
50779;SDS011;36748;37.428;-121.972;2022-09-27T06:11:15;4.35;;;2.88;;
50779;SDS011;36748;37.428;-121.972;2022-09-27T06:13:41;5.10;;;2.90;;
50779;SDS011;36748;37.428;-121.972;2022-09-27T06:16:08;3.85;;;3.03;;
50779;SDS011;36748;37.428;-121.972;2022-09-27T06:18:35;3.55;;;3.25;;
50779;SDS011;36748;37.428;-121.972;2022-09-27T06:21:02;3.85;;;2.97;;
50779;SDS011;36748;37.428;-121.972;2022-09-27T06:23:29;3.85;;;3.00;;
50779;SDS011;36748;37.428;-121.972;2022-09-27T06:26:00;3.10;;;2.80;;
50779;SDS011;36748;37.428;-121.972;2022-09-27T06:28:32;3.28;;;2.80;;
50779;SDS011;36748;37.428;-121.972;2022-09-27T06:31:01;2.80;;;2.47;;
50779;SDS011;36748;37.428;-121.972;2022-09-27T06:33:29;4.25;;;2.90;;
50779;SDS011;36748;37.428;-121.972;2022-09-27T06:35:55;3.50;;;3.20;;
50779;SDS011;36748;37.428;-121.972;2022-09-27T06:38:21;3.80;;;2.90;;
50779;SDS011;36748;37.428;-121.972;2022-09-27T06:40:50;4.18;;;3.00;;
50779;SDS011;36748;37.428;-121.972;2022-09-27T06:43:17;3.17;;;2.53;;
50779;SDS011;36748;37.428;-121.972;2022-09-27T06:45:45;3.70;;;2.70;;
50779;SDS011;36748;37.428;-121.972;2022-09-27T06:48:15;3.13;;;2.80;;
50779;SDS011;36748;37.428;-121.972;2022-09-27T06:50:50;3.60;;;2.60;;
50779;SDS011;36748;37.428;-121.972;2022-09-27T06:53:16;5.82;;;3.00;;
50779;SDS011;36748;37.428;-121.972;2022-09-27T06:55:43;3.03;;;2.72;;
50779;SDS011;36748;37.428;-121.972;2022-09-27T06:58:09;4.07;;;2.70;;
50779;SDS011;36748;37.428;-121.972;2022-09-27T07:01:02;3.33;;;2.70;;
50779;SDS011;36748;37.428;-121.972;2022-09-27T07:03:28;4.47;;;2.85;;
50779;SDS011;36748;37.428;-121.972;2022-09-27T07:06:00;3.15;;;2.85;;
50779;SDS011;36748;37.428;-121.972;2022-09-27T07:08:27;5.55;;;3.17;;
50779;SDS011;36748;37.428;-121.972;2022-09-27T07:10:54;6.18;;;3.08;;
50779;SDS011;36748;37.428;-121.972;2022-09-27T07:13:25;2.78;;;2.55;;
50779;SDS011;36748;37.428;-121.972;2022-09-27T07:15:53;3.65;;;3.28;;
50779;SDS011;36748;37.428;-121.972;2022-09-27T07:18:20;3.40;;;3.10;;
50779;SDS011;36748;37.428;-121.972;2022-09-27T07:20:46;3.67;;;3.00;;
50779;SDS011;36748;37.428;-121.972;2022-09-27T07:23:12;4.15;;;3.08;;
50779;SDS011;36748;37.428;-121.972;2022-09-27T07:25:39;3.40;;;2.92;;
50779;SDS011;36748;37.428;-121.972;2022-09-27T07:28:06;3.08;;;2.58;;
50779;SDS011;36748;37.428;-121.972;2022-09-27T07:30:35;3.30;;;2.90;;
50779;SDS011;36748;37.428;-121.972;2022-09-27T07:33:03;3.55;;;2.95;;
50779;SDS011;36748;37.428;-121.972;2022-09-27T07:35:30;2.97;;;2.67;;
50779;SDS011;36748;37.428;-121.972;2022-09-27T07:37:57;3.83;;;3.42;;
50779;SDS011;36748;37.428;-121.972;2022-09-27T07:40:24;3.13;;;2.78;;
50779;SDS011;36748;37.428;-121.972;2022-09-27T07:42:54;3.28;;;3.00;;
50779;SDS011;36748;37.428;-121.972;2022-09-27T07:45:21;2.90;;;2.42;;
50779;SDS011;36748;37.428;-121.972;2022-09-27T07:47:48;2.92;;;2.70;;
50779;SDS011;36748;37.428;-121.972;2022-09-27T07:50:14;3.80;;;3.05;;
50779;SDS011;36748;37.428;-121.972;2022-09-27T07:52:45;3.45;;;2.97;;
50779;SDS011;36748;37.428;-121.972;2022-09-27T07:55:15;3.85;;;2.95;;
50779;SDS011;36748;37.428;-121.972;2022-09-27T07:57:42;3.70;;;3.05;;
50779;SDS011;36748;37.428;-121.972;2022-09-27T08:00:13;3.75;;;3.22;;
50779;SDS011;36748;37.428;-121.972;2022-09-27T08:02:41;3.33;;;2.65;;
50779;SDS011;36748;37.428;-121.972;2022-09-27T08:05:08;3.58;;;3.15;;
50779;SDS011;36748;37.428;-121.972;2022-09-27T08:07:35;4.55;;;2.90;;
50779;SDS011;36748;37.428;-121.972;2022-09-27T08:10:04;4.03;;;2.60;;
50779;SDS011;36748;37.428;-121.972;2022-09-27T08:12:31;3.65;;;2.78;;
50779;SDS011;36748;37.428;-121.972;2022-09-27T08:15:00;3.25;;;2.95;;
50779;SDS011;36748;37.428;-121.972;2022-09-27T08:17:29;3.28;;;2.97;;
50779;SDS011;36748;37.428;-121.972;2022-09-27T08:19:56;8.10;;;4.03;;
50779;SDS011;36748;37.428;-121.972;2022-09-27T08:22:22;4.13;;;3.72;;
50779;SDS011;36748;37.428;-121.972;2022-09-27T08:24:48;5.45;;;4.00;;
50779;SDS011;36748;37.428;-121.972;2022-09-27T08:27:23;4.43;;;4.00;;
50779;SDS011;36748;37.428;-121.972;2022-09-27T08:29:50;5.38;;;3.85;;
50779;SDS011;36748;37.428;-121.972;2022-09-27T08:32:16;4.78;;;4.32;;
50779;SDS011;36748;37.428;-121.972;2022-09-27T08:34:45;4.88;;;3.95;;
50779;SDS011;36748;37.428;-121.972;2022-09-27T08:37:20;6.67;;;3.73;;
50779;SDS011;36748;37.428;-121.972;2022-09-27T08:39:46;4.00;;;3.60;;
50779;SDS011;36748;37.428;-121.972;2022-09-27T08:42:27;4.50;;;4.00;;
50779;SDS011;36748;37.428;-121.972;2022-09-27T08:45:45;5.20;;;3.90;;
50779;SDS011;36748;37.428;-121.972;2022-09-27T08:47:57;4.40;;;3.97;;
50779;SDS011;36748;37.428;-121.972;2022-09-27T08:50:27;5.38;;;4.13;;
50779;SDS011;36748;37.428;-121.972;2022-09-27T08:55:37;4.18;;;3.25;;
50779;SDS011;36748;37.428;-121.972;2022-09-27T08:58:12;3.15;;;2.72;;
50779;SDS011;36748;37.428;-121.972;2022-09-27T09:00:59;3.30;;;3.00;;
50779;SDS011;36748;37.428;-121.972;2022-09-27T09:03:35;3.67;;;3.38;;
50779;SDS011;36748;37.428;-121.972;2022-09-27T09:11:28;3.50;;;3.20;;
50779;SDS011;36748;37.428;-121.972;2022-09-27T09:19:46;4.82;;;3.17;;
50779;SDS011;36748;37.428;-121.972;2022-09-27T09:33:31;3.75;;;3.38;;
50779;SDS011;36748;37.428;-121.972;2022-09-27T09:38:51;3.38;;;3.03;;
50779;SDS011;36748;37.428;-121.972;2022-09-27T09:43:50;4.30;;;3.30;;
50779;SDS011;36748;37.428;-121.972;2022-09-27T09:46:29;3.85;;;3.45;;
50779;SDS011;36748;37.428;-121.972;2022-09-27T09:51:43;4.22;;;3.15;;
50779;SDS011;36748;37.428;-121.972;2022-09-27T09:57:01;5.70;;;3.35;;
50779;SDS011;36748;37.428;-121.972;2022-09-27T09:59:42;3.47;;;2.85;;
50779;SDS011;36748;37.428;-121.972;2022-09-27T10:02:16;3.42;;;3.13;;
50779;SDS011;36748;37.428;-121.972;2022-09-27T10:04:44;4.07;;;3.00;;
50779;SDS011;36748;37.428;-121.972;2022-09-27T10:07:10;3.65;;;3.30;;
50779;SDS011;36748;37.428;-121.972;2022-09-27T10:09:39;3.85;;;2.90;;
50779;SDS011;36748;37.428;-121.972;2022-09-27T10:12:05;3.10;;;2.80;;
50779;SDS011;36748;37.428;-121.972;2022-09-27T10:14:31;2.75;;;2.55;;
50779;SDS011;36748;37.428;-121.972;2022-09-27T10:16:58;3.58;;;3.28;;
50779;SDS011;36748;37.428;-121.972;2022-09-27T10:19:30;4.13;;;3.20;;
50779;SDS011;36748;37.428;-121.972;2022-09-27T10:21:58;3.35;;;3.05;;
50779;SDS011;36748;37.428;-121.972;2022-09-27T10:24:28;3.45;;;3.15;;
50779;SDS011;36748;37.428;-121.972;2022-09-27T10:26:56;3.53;;;3.08;;
50779;SDS011;36748;37.428;-121.972;2022-09-27T10:29:33;3.60;;;3.30;;
50779;SDS011;36748;37.428;-121.972;2022-09-27T10:32:02;3.63;;;3.33;;
50779;SDS011;36748;37.428;-121.972;2022-09-27T10:34:30;6.53;;;3.40;;
50779;SDS011;36748;37.428;-121.972;2022-09-27T10:37:02;4.28;;;3.17;;
50779;SDS011;36748;37.428;-121.972;2022-09-27T10:39:46;3.47;;;2.80;;
50779;SDS011;36748;37.428;-121.972;2022-09-27T10:45:24;3.90;;;3.08;;
50779;SDS011;36748;37.428;-121.972;2022-09-27T10:47:56;3.60;;;3.30;;
50779;SDS011;36748;37.428;-121.972;2022-09-27T10:50:24;3.75;;;3.17;;
50779;SDS011;36748;37.428;-121.972;2022-09-27T10:55:27;3.13;;;2.83;;
50779;SDS011;36748;37.428;-121.972;2022-09-27T10:58:00;3.88;;;2.80;;
50779;SDS011;36748;37.428;-121.972;2022-09-27T11:00:33;3.53;;;3.05;;
50779;SDS011;36748;37.428;-121.972;2022-09-27T11:03:22;5.05;;;3.03;;
50779;SDS011;36748;37.428;-121.972;2022-09-27T11:05:49;3.83;;;2.60;;
50779;SDS011;36748;37.428;-121.972;2022-09-27T11:16:49;3.30;;;3.00;;
50779;SDS011;36748;37.428;-121.972;2022-09-27T11:19:32;6.07;;;2.95;;
50779;SDS011;36748;37.428;-121.972;2022-09-27T11:24:45;4.07;;;3.33;;
50779;SDS011;36748;37.428;-121.972;2022-09-27T11:30:19;4.18;;;3.00;;
50779;SDS011;36748;37.428;-121.972;2022-09-27T11:33:00;3.20;;;2.90;;
50779;SDS011;36748;37.428;-121.972;2022-09-27T11:43:57;4.30;;;3.55;;
50779;SDS011;36748;37.428;-121.972;2022-09-27T11:46:34;5.00;;;3.63;;
50779;SDS011;36748;37.428;-121.972;2022-09-27T11:58:21;4.85;;;3.80;;
50779;SDS011;36748;37.428;-121.972;2022-09-27T12:09:14;5.15;;;4.00;;
50779;SDS011;36748;37.428;-121.972;2022-09-27T12:11:52;5.05;;;4.00;;
50779;SDS011;36748;37.428;-121.972;2022-09-27T12:17:05;6.63;;;4.20;;
50779;SDS011;36748;37.428;-121.972;2022-09-27T12:19:37;5.75;;;4.25;;
50779;SDS011;36748;37.428;-121.972;2022-09-27T12:22:08;5.88;;;3.85;;
50779;SDS011;36748;37.428;-121.972;2022-09-27T12:24:38;6.22;;;3.60;;
50779;SDS011;36748;37.428;-121.972;2022-09-27T12:28:06;5.40;;;3.92;;
50779;SDS011;36748;37.428;-121.972;2022-09-27T12:30:11;5.05;;;3.80;;
50779;SDS011;36748;37.428;-121.972;2022-09-27T12:35:39;4.78;;;3.80;;
50779;SDS011;36748;37.428;-121.972;2022-09-27T12:41:10;5.28;;;3.63;;
50779;SDS011;36748;37.428;-121.972;2022-09-27T12:43:39;7.50;;;3.78;;
50779;SDS011;36748;37.428;-121.972;2022-09-27T12:51:59;9.00;;;3.45;;
50779;SDS011;36748;37.428;-121.972;2022-09-27T12:54:38;8.02;;;3.97;;
50779;SDS011;36748;37.428;-121.972;2022-09-27T13:00:02;5.57;;;3.45;;
50779;SDS011;36748;37.428;-121.972;2022-09-27T13:02:35;7.68;;;4.30;;
50779;SDS011;36748;37.428;-121.972;2022-09-27T13:05:19;4.93;;;3.35;;
50779;SDS011;36748;37.428;-121.972;2022-09-27T13:13:43;4.05;;;3.67;;
50779;SDS011;36748;37.428;-121.972;2022-09-27T13:16:09;4.35;;;3.60;;
50779;SDS011;36748;37.428;-121.972;2022-09-27T13:32:34;5.15;;;3.00;;
50779;SDS011;36748;37.428;-121.972;2022-09-27T13:35:18;4.95;;;2.83;;
50779;SDS011;36748;37.428;-121.972;2022-09-27T13:37:54;7.38;;;3.28;;
50779;SDS011;36748;37.428;-121.972;2022-09-27T13:45:41;4.53;;;3.00;;
50779;SDS011;36748;37.428;-121.972;2022-09-27T13:48:18;3.38;;;3.08;;
50779;SDS011;36748;37.428;-121.972;2022-09-27T13:51:35;4.43;;;3.58;;
50779;SDS011;36748;37.428;-121.972;2022-09-27T13:56:59;4.40;;;3.35;;
50779;SDS011;36748;37.428;-121.972;2022-09-27T13:59:40;6.63;;;3.10;;
50779;SDS011;36748;37.428;-121.972;2022-09-27T14:02:22;4.00;;;3.05;;
50779;SDS011;36748;37.428;-121.972;2022-09-27T14:04:50;4.07;;;3.40;;
50779;SDS011;36748;37.428;-121.972;2022-09-27T14:07:18;5.30;;;2.92;;
50779;SDS011;36748;37.428;-121.972;2022-09-27T14:09:58;4.30;;;3.47;;
50779;SDS011;36748;37.428;-121.972;2022-09-27T14:12:30;6.32;;;3.42;;
50779;SDS011;36748;37.428;-121.972;2022-09-27T14:15:00;2.78;;;2.53;;
50779;SDS011;36748;37.428;-121.972;2022-09-27T14:17:27;5.05;;;2.65;;
50779;SDS011;36748;37.428;-121.972;2022-09-27T14:19:55;5.65;;;3.00;;
50779;SDS011;36748;37.428;-121.972;2022-09-27T14:22:21;5.68;;;3.00;;
50779;SDS011;36748;37.428;-121.972;2022-09-27T14:24:49;3.03;;;2.72;;
50779;SDS011;36748;37.428;-121.972;2022-09-27T14:27:17;5.18;;;3.00;;
50779;SDS011;36748;37.428;-121.972;2022-09-27T14:32:25;3.10;;;2.58;;
50779;SDS011;36748;37.428;-121.972;2022-09-27T14:35:12;3.05;;;2.40;;
50779;SDS011;36748;37.428;-121.972;2022-09-27T14:38:01;2.67;;;2.47;;
50779;SDS011;36748;37.428;-121.972;2022-09-27T14:40:30;5.97;;;2.72;;
50779;SDS011;36748;37.428;-121.972;2022-09-27T14:43:03;4.82;;;2.95;;
50779;SDS011;36748;37.428;-121.972;2022-09-27T14:45:35;3.60;;;2.70;;
50779;SDS011;36748;37.428;-121.972;2022-09-27T14:50:54;3.03;;;2.50;;
50779;SDS011;36748;37.428;-121.972;2022-09-27T14:53:22;8.80;;;2.60;;
50779;SDS011;36748;37.428;-121.972;2022-09-27T14:55:49;5.07;;;2.80;;
50779;SDS011;36748;37.428;-121.972;2022-09-27T14:58:17;5.13;;;2.70;;
50779;SDS011;36748;37.428;-121.972;2022-09-27T15:00:46;4.20;;;2.55;;
50779;SDS011;36748;37.428;-121.972;2022-09-27T15:03:24;3.17;;;2.58;;
50779;SDS011;36748;37.428;-121.972;2022-09-27T15:05:54;3.33;;;2.50;;
50779;SDS011;36748;37.428;-121.972;2022-09-27T15:08:22;3.53;;;2.60;;
50779;SDS011;36748;37.428;-121.972;2022-09-27T15:10:48;9.35;;;2.92;;
50779;SDS011;36748;37.428;-121.972;2022-09-27T15:13:16;4.53;;;2.60;;
50779;SDS011;36748;37.428;-121.972;2022-09-27T15:15:43;4.18;;;2.42;;
50779;SDS011;36748;37.428;-121.972;2022-09-27T15:21:07;2.88;;;2.28;;
50779;SDS011;36748;37.428;-121.972;2022-09-27T15:23:43;3.75;;;2.10;;
50779;SDS011;36748;37.428;-121.972;2022-09-27T15:26:11;2.83;;;2.58;;
50779;SDS011;36748;37.428;-121.972;2022-09-27T15:28:43;2.67;;;2.00;;
50779;SDS011;36748;37.428;-121.972;2022-09-27T15:31:10;7.72;;;2.30;;
50779;SDS011;36748;37.428;-121.972;2022-09-27T15:33:38;3.35;;;2.40;;
50779;SDS011;36748;37.428;-121.972;2022-09-27T15:36:06;3.17;;;2.30;;
50779;SDS011;36748;37.428;-121.972;2022-09-27T15:38:44;4.65;;;2.30;;
50779;SDS011;36748;37.428;-121.972;2022-09-27T15:41:17;3.08;;;2.20;;
50779;SDS011;36748;37.428;-121.972;2022-09-27T15:43:49;3.08;;;2.17;;
50779;SDS011;36748;37.428;-121.972;2022-09-27T15:46:36;5.00;;;2.13;;
50779;SDS011;36748;37.428;-121.972;2022-09-27T15:51:40;4.13;;;2.08;;
50779;SDS011;36748;37.428;-121.972;2022-09-27T15:54:07;3.42;;;2.30;;
50779;SDS011;36748;37.428;-121.972;2022-09-27T15:56:33;2.90;;;2.17;;
50779;SDS011;36748;37.428;-121.972;2022-09-27T15:58:59;3.58;;;2.55;;
50779;SDS011;36748;37.428;-121.972;2022-09-27T16:01:26;4.38;;;2.28;;
50779;SDS011;36748;37.428;-121.972;2022-09-27T16:03:52;3.17;;;2.30;;
50779;SDS011;36748;37.428;-121.972;2022-09-27T16:06:18;2.45;;;2.05;;
50779;SDS011;36748;37.428;-121.972;2022-09-27T16:08:52;3.15;;;2.50;;
50779;SDS011;36748;37.428;-121.972;2022-09-27T16:11:18;5.60;;;3.10;;
50779;SDS011;36748;37.428;-121.972;2022-09-27T16:13:44;2.97;;;2.10;;
50779;SDS011;36748;37.428;-121.972;2022-09-27T16:16:14;3.42;;;2.28;;
50779;SDS011;36748;37.428;-121.972;2022-09-27T16:18:42;5.80;;;2.80;;
50779;SDS011;36748;37.428;-121.972;2022-09-27T16:21:08;3.55;;;2.60;;
50779;SDS011;36748;37.428;-121.972;2022-09-27T16:23:35;3.97;;;2.50;;
50779;SDS011;36748;37.428;-121.972;2022-09-27T16:26:01;4.75;;;2.60;;
50779;SDS011;36748;37.428;-121.972;2022-09-27T16:28:29;3.72;;;2.60;;
50779;SDS011;36748;37.428;-121.972;2022-09-27T16:31:00;6.40;;;2.33;;
50779;SDS011;36748;37.428;-121.972;2022-09-27T16:33:30;2.63;;;2.40;;
50779;SDS011;36748;37.428;-121.972;2022-09-27T16:35:57;5.28;;;2.70;;
50779;SDS011;36748;37.428;-121.972;2022-09-27T16:38:39;9.68;;;2.50;;
50779;SDS011;36748;37.428;-121.972;2022-09-27T16:41:06;4.65;;;2.40;;
50779;SDS011;36748;37.428;-121.972;2022-09-27T16:43:32;6.72;;;2.65;;
50779;SDS011;36748;37.428;-121.972;2022-09-27T16:46:07;6.22;;;2.63;;
50779;SDS011;36748;37.428;-121.972;2022-09-27T16:48:36;4.13;;;2.55;;
50779;SDS011;36748;37.428;-121.972;2022-09-27T16:51:06;2.95;;;2.50;;
50779;SDS011;36748;37.428;-121.972;2022-09-27T16:53:55;3.83;;;2.30;;
50779;SDS011;36748;37.428;-121.972;2022-09-27T16:56:21;2.83;;;2.35;;
50779;SDS011;36748;37.428;-121.972;2022-09-27T16:58:47;3.28;;;2.17;;
50779;SDS011;36748;37.428;-121.972;2022-09-27T17:01:14;3.25;;;2.33;;
50779;SDS011;36748;37.428;-121.972;2022-09-27T17:03:43;4.55;;;2.47;;
50779;SDS011;36748;37.428;-121.972;2022-09-27T17:06:14;3.88;;;2.45;;
50779;SDS011;36748;37.428;-121.972;2022-09-27T17:08:41;6.80;;;2.40;;
50779;SDS011;36748;37.428;-121.972;2022-09-27T17:11:10;4.10;;;2.20;;
50779;SDS011;36748;37.428;-121.972;2022-09-27T17:13:40;3.85;;;2.08;;
50779;SDS011;36748;37.428;-121.972;2022-09-27T17:16:06;5.53;;;2.38;;
50779;SDS011;36748;37.428;-121.972;2022-09-27T17:18:33;3.25;;;2.13;;
50779;SDS011;36748;37.428;-121.972;2022-09-27T17:21:02;6.07;;;2.67;;
50779;SDS011;36748;37.428;-121.972;2022-09-27T17:23:29;4.90;;;2.30;;
50779;SDS011;36748;37.428;-121.972;2022-09-27T17:31:47;3.83;;;2.53;;
50779;SDS011;36748;37.428;-121.972;2022-09-27T17:34:13;3.42;;;2.28;;
50779;SDS011;36748;37.428;-121.972;2022-09-27T17:36:40;3.92;;;2.33;;